ADDS METAR Data INFO
IDs: Format: Raw Decoded Include TAF

Data at: 1717 UTC 23 Oct 2017

KOFP 231654Z AUTO 14008G16KT 100V170 10SM BKN038 BKN055 24/17 A3010 RMK AO2 SLP191 T02390167
KOFP 231554Z AUTO VRB05KT 10SM CLR 24/18 A3014 RMK AO2 SLP205 T02390178
KOFP 231454Z AUTO 12004KT 10SM CLR 21/18 A3018 RMK AO2 SLP218 T02110178 58020
KOFP 231407Z AUTO 13004KT 7SM SCT003 17/17 A3020 RMK AO2 T01720172
KOFP 231354Z AUTO VRB03KT 6SM BR BKN002 17/17 A3021 RMK AO2 SLP228 T01670167
KOFP 231339Z AUTO 00000KT 4SM BR BKN002 17/17 A3021 RMK AO2 T01670167
KOFP 231329Z AUTO 00000KT 2SM BR OVC002 16/16 A3021 RMK AO2 T01610161
KOFP 231325Z AUTO 00000KT 1 1/4SM BR OVC002 16/16 A3021 RMK AO2 T01610161
KOFP 231254Z AUTO 00000KT 3/4SM BR OVC002 15/15 A3023 RMK AO2 SLP236 T01500150
KOFP 231154Z AUTO 00000KT 1/4SM FG VV002 14/14 A3024 RMK AO2 SLP238 T01390139 10156 20128 56007
KOFP 231054Z AUTO 00000KT 1/2SM FG VV002 14/14 A3024 RMK AO2 SLP241 T01390139
KOFP 230954Z AUTO 00000KT 1/4SM FG VV002 14/14 A3025 RMK AO2 SLP243 T01440144
KOFP 230854Z AUTO 00000KT 1/4SM FG VV002 14/14 A3026 RMK AO2 SLP245 T01440144 58007
KOFP 230754Z AUTO 00000KT 1/4SM FG VV002 14/14 A3027 RMK AO2 SLP247 T01390139
KOFP 230713Z AUTO 00000KT 3/4SM BR OVC003 13/13 A3028 RMK AO2 T01330133
KOFP 230710Z AUTO 00000KT 1 1/2SM BR OVC003 13/13 A3028 RMK AO2 T01330128
KOFP 230708Z AUTO 00000KT 3SM BR OVC003 13/13 A3028 RMK AO2 T01330128
KOFP 230654Z AUTO 00000KT 9SM OVC006 13/13 A3028 RMK AO2 SLP252 T01330128
KOFP 230641Z AUTO 00000KT 9SM BKN006 13/13 A3028 RMK AO2 T01280128
KOFP 230633Z AUTO 00000KT 7SM SCT006 13/13 A3028 RMK AO2 T01280128
KOFP 230554Z AUTO 00000KT 10SM CLR 13/13 A3028 RMK AO2 SLP252 T01280128 10161 20128 56015
KOFP 230454Z AUTO 00000KT 10SM CLR 13/13 A3030 RMK AO2 SLP258 T01330128 402500094
KOFP 230354Z AUTO 00000KT 9SM CLR 14/14 A3031 RMK AO2 SLP262 T01390139
KOFP 230254Z AUTO 00000KT 10SM CLR 14/14 A3032 RMK AO2 SLP268 T01440139 58002
KOFP 230154Z AUTO 00000KT 10SM CLR 15/13 A3034 RMK AO2 SLP272 T01500133
KOFP 230054Z AUTO 00000KT 10SM CLR 16/13 A3033 RMK AO2 SLP271 T01560133
KOFP 222354Z AUTO 00000KT 10SM CLR 16/13 A3033 RMK AO2 SLP270 T01610133 10250 20161 53008
KOFP 222254Z AUTO 09003KT 10SM CLR 18/13 A3031 RMK AO2 SLP261 T01830133
KOFP 222154Z AUTO 09003KT 10SM CLR 21/14 A3030 RMK AO2 SLP260 T02060144
KOFP 222054Z AUTO 11004KT 10SM CLR 24/14 A3031 RMK AO2 SLP261 T02390139 56014
KOFP 221954Z AUTO VRB05KT 10SM CLR 24/14 A3031 RMK AO2 SLP264 T02440139
KOFP 221854Z AUTO 20005KT 10SM CLR 24/13 A3032 RMK AO2 SLP267 T02440133
KOFP 221754Z AUTO VRB04KT 10SM CLR 24/14 A3035 RMK AO2 SLP276 T02390139 10244 20094 58019
KOFP 221654Z AUTO 00000KT 10SM CLR 23/14 A3038 RMK AO2 SLP285 T02280144
KOFP 221554Z AUTO VRB04KT 10SM CLR 22/14 A3039 RMK AO2 SLP289 T02170144
KOFP 221454Z AUTO 17003KT 10SM CLR 19/14 A3040 RMK AO2 SLP294 T01940139 50003
KOFP 221354Z AUTO 00000KT 9SM CLR 17/13 A3041 RMK AO2 SLP295 T01670133
KOFP 221254Z AUTO 00000KT 6SM BR CLR 12/11 A3041 RMK AO2 SLP296 T01220111
KOFP 221154Z AUTO 00000KT 5SM BR CLR 09/09 A3039 RMK AO2 SLP292 T00940089 10117 20094 53014
KOFP 221054Z AUTO 00000KT 6SM BR CLR 09/09 A3038 RMK AO2 SLP287 T00940089
KOFP 220954Z AUTO 00000KT 7SM CLR 10/09 A3037 RMK AO2 SLP283 T01000094
KOFP 220854Z AUTO 00000KT 7SM CLR 10/09 A3035 RMK AO2 SLP278 T01000094 55001
KOFP 220754Z AUTO 00000KT 7SM CLR 11/10 A3034 RMK AO2 SLP274 T01060100
KOFP 220654Z AUTO 00000KT 7SM CLR 11/11 A3035 RMK AO2 SLP277 T01110106
KOFP 220554Z AUTO 00000KT 7SM CLR 12/11 A3036 RMK AO2 SLP279 T01170111 10167 20117 56005